Time;durP1;ratioP1;P1;durP2;ratioP2;P2;SDS_P1;SDS_P2;PMS_P1;PMS_P2;Temp;Humidity;BMP_temperature;BMP_pressure;BME280_temperature;BME280_humidity;BME280_pressure;Samples;Min_cycle;Max_cycle;Signal;HPM_P1;HPM_P2
2021/11/25 00:00:48;;;;;;;17.07;10.20;;;4.10;67.90;;;;;;5014921;28;20399;-77
2021/11/25 00:03:13;;;;;;;16.37;9.47;;;4.10;66.80;;;;;;5012330;28;20405;-75
2021/11/25 00:05:39;;;;;;;13.43;9.20;;;4.20;65.40;;;;;;5012719;28;20405;-75
2021/11/25 00:08:06;;;;;;;12.88;8.93;;;4.30;64.00;;;;;;5014977;28;20396;-76
2021/11/25 00:10:32;;;;;;;16.77;9.20;;;4.30;62.50;;;;;;5015284;28;21333;-74
2021/11/25 00:12:57;;;;;;;14.57;8.73;;;4.40;62.00;;;;;;5013897;28;20404;-74
2021/11/25 00:15:23;;;;;;;14.60;9.43;;;4.40;61.90;;;;;;5013027;28;20413;-76
2021/11/25 00:17:49;;;;;;;12.80;9.05;;;4.50;61.90;;;;;;5013420;28;20393;-76
2021/11/25 00:20:16;;;;;;;14.97;9.83;;;4.50;61.60;;;;;;5013238;28;20484;-75
2021/11/25 00:22:43;;;;;;;15.05;10.27;;;4.60;60.20;;;;;;5012073;28;20392;-75
2021/11/25 00:25:09;;;;;;;12.15;8.35;;;4.50;59.40;;;;;;5013513;28;20819;-76
2021/11/25 00:27:36;;;;;;;15.10;9.48;;;4.70;58.40;;;;;;5014226;28;20389;-75
2021/11/25 00:30:03;;;;;;;13.48;8.70;;;4.70;58.00;;;;;;5014274;28;20385;-77
2021/11/25 00:32:28;;;;;;;15.70;10.30;;;4.70;57.70;;;;;;5015853;28;20400;-76
2021/11/25 00:34:54;;;;;;;17.70;8.63;;;4.70;58.00;;;;;;5017232;28;20431;-75
2021/11/25 00:37:20;;;;;;;13.53;8.93;;;4.70;57.90;;;;;;5015566;28;20396;-77
2021/11/25 00:39:45;;;;;;;16.87;9.60;;;4.70;58.50;;;;;;5019005;28;20392;-77
2021/11/25 00:42:11;;;;;;;13.43;9.20;;;4.60;58.50;;;;;;5016343;28;20475;-75
2021/11/25 00:44:36;;;;;;;15.17;9.90;;;4.70;58.80;;;;;;5014432;28;20404;-76
2021/11/25 00:47:02;;;;;;;18.07;11.00;;;4.70;59.00;;;;;;5013753;28;20407;-77
2021/11/25 00:49:27;;;;;;;17.50;9.47;;;4.70;58.30;;;;;;5014874;28;20393;-77
2021/11/25 00:51:53;;;;;;;17.60;10.40;;;4.70;57.60;;;;;;5014550;28;20854;-77
2021/11/25 00:54:18;;;;;;;12.15;9.20;;;4.70;56.90;;;;;;5013888;28;20385;-75
2021/11/25 00:56:44;;;;;;;12.50;9.00;;;4.70;57.20;;;;;;5011369;28;20416;-76
2021/11/25 00:59:11;;;;;;;16.70;9.15;;;4.70;57.40;;;;;;5012654;28;20415;-75
2021/11/25 01:01:37;;;;;;;12.05;8.95;;;4.70;57.70;;;;;;5012826;28;20387;-76
2021/11/25 01:04:03;;;;;;;16.10;11.40;;;4.80;57.30;;;;;;5015120;28;20381;-76
2021/11/25 01:06:29;;;;;;;13.03;9.10;;;4.80;57.10;;;;;;5019110;28;20392;-76
2021/11/25 01:08:54;;;;;;;12.23;8.68;;;4.70;57.50;;;;;;5014301;28;20747;-77
2021/11/25 01:11:21;;;;;;;12.98;9.63;;;4.80;57.50;;;;;;5013704;28;20384;-76
2021/11/25 01:13:48;;;;;;;13.32;8.85;;;4.80;57.20;;;;;;5013745;28;20392;-74
2021/11/25 01:16:13;;;;;;;13.95;9.25;;;4.80;56.80;;;;;;5012578;28;20814;-75
2021/11/25 01:18:39;;;;;;;12.50;9.10;;;4.80;56.60;;;;;;5013574;28;20395;-75
2021/11/25 01:21:04;;;;;;;19.63;9.60;;;4.80;56.60;;;;;;5012968;28;20762;-75
2021/11/25 01:23:30;;;;;;;14.67;9.30;;;4.90;56.60;;;;;;5013080;28;20770;-75
2021/11/25 01:25:57;;;;;;;14.60;9.55;;;4.90;56.00;;;;;;5014012;28;20491;-76
2021/11/25 01:28:24;;;;;;;14.55;9.75;;;5.00;56.00;;;;;;5014334;28;20388;-76
2021/11/25 01:30:57;;;;;;;15.10;9.10;;;5.00;56.10;;;;;;5014197;28;20400;-74
2021/11/25 01:33:24;;;;;;;12.65;8.80;;;5.00;56.70;;;;;;5013524;28;20389;-76
2021/11/25 01:35:51;;;;;;;14.80;9.43;;;5.00;55.70;;;;;;5012903;28;20416;-75
2021/11/25 01:38:16;;;;;;;13.45;9.40;;;5.10;55.40;;;;;;5011555;28;20400;-75
2021/11/25 01:40:44;;;;;;;15.60;8.68;;;5.10;55.40;;;;;;5011760;28;20901;-75
2021/11/25 01:43:10;;;;;;;14.15;9.20;;;5.10;55.10;;;;;;5010216;28;20401;-76
2021/11/25 01:45:36;;;;;;;11.20;8.45;;;5.10;54.70;;;;;;5005207;28;20432;-74
2021/11/25 01:48:02;;;;;;;12.15;8.57;;;5.10;54.30;;;;;;5011738;28;20380;-74
2021/11/25 01:50:29;;;;;;;14.98;9.20;;;5.10;55.00;;;;;;5011229;28;20459;-75
2021/11/25 01:52:56;;;;;;;12.98;9.75;;;5.10;54.80;;;;;;5011049;28;20401;-75
2021/11/25 01:55:23;;;;;;;11.57;8.20;;;5.10;54.70;;;;;;5011929;28;20495;-76
2021/11/25 01:57:49;;;;;;;20.63;10.18;;;5.10;54.60;;;;;;5011099;28;20863;-73
2021/11/25 02:00:20;;;;;;;14.73;9.48;;;5.10;54.00;;;;;;5005242;28;20898;-74
2021/11/25 02:02:46;;;;;;;16.35;8.80;;;5.10;53.80;;;;;;4991145;28;20391;-76
2021/11/25 02:05:11;;;;;;;14.05;9.23;;;5.10;53.10;;;;;;4991614;28;20395;-76
2021/11/25 02:07:37;;;;;;;13.70;9.00;;;5.10;52.50;;;;;;4990822;28;20383;-76
2021/11/25 02:10:05;;;;;;;13.33;9.23;;;5.20;51.80;;;;;;5009289;28;20499;-73
2021/11/25 02:12:31;;;;;;;12.60;8.75;;;5.10;51.80;;;;;;5010391;28;20400;-75
2021/11/25 02:14:56;;;;;;;14.25;9.05;;;5.20;51.90;;;;;;5012034;28;20443;-76
2021/11/25 02:17:22;;;;;;;13.33;9.07;;;5.10;52.10;;;;;;5013779;28;20945;-76
2021/11/25 02:19:49;;;;;;;14.20;9.02;;;5.10;53.00;;;;;;5013337;28;20403;-76
2021/11/25 02:22:19;;;;;;;14.47;9.50;;;5.10;52.80;;;;;;5012655;28;20402;-74
2021/11/25 02:24:44;;;;;;;15.65;10.10;;;5.10;53.10;;;;;;5014135;28;20753;-75
2021/11/25 02:27:10;;;;;;;13.13;9.60;;;5.20;52.80;;;;;;5013693;28;20376;-76
2021/11/25 02:29:39;;;;;;;19.88;11.80;;;5.20;52.40;;;;;;5013912;28;20392;-74
2021/11/25 02:32:04;;;;;;;13.32;9.60;;;5.10;52.50;;;;;;5014322;28;20396;-75
2021/11/25 02:34:30;;;;;;;12.80;9.10;;;5.10;53.00;;;;;;5014157;28;20388;-75
2021/11/25 02:36:56;;;;;;;12.80;8.40;;;5.10;53.50;;;;;;5014291;28;20916;-75
2021/11/25 02:39:21;;;;;;;16.17;9.40;;;5.20;53.10;;;;;;5013554;28;20396;-75
2021/11/25 02:41:47;;;;;;;14.37;9.70;;;5.10;53.40;;;;;;5014939;28;20591;-76
2021/11/25 02:44:12;;;;;;;17.70;10.47;;;5.10;53.70;;;;;;5014783;28;20416;-76
2021/11/25 02:46:38;;;;;;;15.43;9.05;;;5.10;54.60;;;;;;5014434;28;20404;-75
2021/11/25 02:49:04;;;;;;;14.77;9.23;;;5.10;54.90;;;;;;5013462;28;20400;-75
2021/11/25 02:51:35;;;;;;;16.85;8.75;;;5.20;53.90;;;;;;5014262;28;20874;-75
2021/11/25 02:54:01;;;;;;;14.30;8.70;;;5.20;53.60;;;;;;5014488;28;20475;-75
2021/11/25 02:56:28;;;;;;;11.00;8.48;;;5.30;52.70;;;;;;5013620;28;20412;-76
2021/11/25 02:58:56;;;;;;;16.05;9.48;;;5.20;53.00;;;;;;5013951;28;20391;-73
2021/11/25 03:01:29;;;;;;;13.32;8.73;;;5.20;53.90;;;;;;5013800;28;20842;-76
2021/11/25 03:03:56;;;;;;;13.40;9.35;;;5.20;54.00;;;;;;5014416;28;20395;-75
2021/11/25 03:06:22;;;;;;;12.90;8.80;;;5.20;53.30;;;;;;5012611;28;20401;-73
2021/11/25 03:08:48;;;;;;;14.98;10.02;;;5.20;52.70;;;;;;5013828;28;20423;-75
2021/11/25 03:11:17;;;;;;;20.33;10.25;;;5.20;53.10;;;;;;5013381;28;20408;-77
2021/11/25 03:13:46;;;;;;;17.00;9.50;;;5.20;53.10;;;;;;5013752;28;20408;-75
2021/11/25 03:16:15;;;;;;;17.52;10.50;;;5.20;52.50;;;;;;5012998;28;20516;-77
2021/11/25 03:18:41;;;;;;;14.30;9.90;;;5.20;51.70;;;;;;5013867;28;20475;-75
2021/11/25 03:21:07;;;;;;;11.73;9.07;;;5.20;51.70;;;;;;5013390;28;20399;-75
2021/11/25 03:23:37;;;;;;;17.58;10.55;;;5.40;49.90;;;;;;5012746;28;20401;-74
2021/11/25 03:26:04;;;;;;;14.63;10.40;;;5.40;50.10;;;;;;5013152;28;20392;-76
2021/11/25 03:28:29;;;;;;;12.35;9.27;;;5.30;49.80;;;;;;5013477;28;20393;-75
2021/11/25 03:30:56;;;;;;;15.03;9.57;;;5.30;49.50;;;;;;5015913;28;20897;-74
2021/11/25 03:33:32;;;;;;;15.45;9.95;;;5.40;49.20;;;;;;5016269;28;20447;-75
2021/11/25 03:36:00;;;;;;;15.20;9.95;;;5.30;49.20;;;;;;5015911;28;20409;-75
2021/11/25 03:38:26;;;;;;;18.35;10.70;;;5.20;50.10;;;;;;5013272;28;20389;-75
2021/11/25 03:40:53;;;;;;;15.30;9.68;;;5.10;50.70;;;;;;5013410;28;20392;-76
2021/11/25 03:43:19;;;;;;;13.57;10.02;;;5.00;50.80;;;;;;5013035;28;20400;-77
2021/11/25 03:45:44;;;;;;;16.75;10.50;;;5.00;51.40;;;;;;5013139;28;20493;-75
2021/11/25 03:48:10;;;;;;;15.27;10.60;;;4.90;52.40;;;;;;5013221;28;20396;-76
2021/11/25 03:50:36;;;;;;;18.15;10.52;;;4.80;52.80;;;;;;5012703;28;20408;-75
2021/11/25 03:53:03;;;;;;;15.75;9.93;;;4.80;53.00;;;;;;5012876;28;20483;-75
2021/11/25 03:55:28;;;;;;;16.70;10.70;;;4.90;52.60;;;;;;5012727;28;20412;-75
2021/11/25 03:57:54;;;;;;;13.50;9.90;;;4.80;52.40;;;;;;5013010;28;20393;-79
2021/11/25 04:00:22;;;;;;;18.88;10.60;;;4.90;52.50;;;;;;5013528;28;20388;-74
2021/11/25 04:02:50;;;;;;;17.33;10.65;;;4.90;52.40;;;;;;5012566;28;20397;-75
2021/11/25 04:05:17;;;;;;;15.82;9.70;;;5.00;51.60;;;;;;5012949;28;20387;-76
2021/11/25 04:07:43;;;;;;;16.23;11.32;;;4.90;51.40;;;;;;5012850;28;20389;-76
2021/11/25 04:10:11;;;;;;;18.20;11.68;;;5.00;51.00;;;;;;5012355;28;20400;-76
2021/11/25 04:12:37;;;;;;;15.90;9.93;;;4.90;51.30;;;;;;5017293;28;20757;-76
2021/11/25 04:15:04;;;;;;;17.20;11.43;;;4.90;51.00;;;;;;5015657;28;20409;-75
2021/11/25 04:17:30;;;;;;;24.70;12.05;;;4.90;51.30;;;;;;5012460;28;20462;-75
2021/11/25 04:19:55;;;;;;;20.52;11.70;;;4.90;52.20;;;;;;5013783;28;20393;-76
2021/11/25 04:22:21;;;;;;;16.63;11.00;;;4.90;51.70;;;;;;5012124;28;20454;-75
2021/11/25 04:24:49;;;;;;;20.73;12.00;;;5.00;51.30;;;;;;5013461;28;20451;-74
2021/11/25 04:27:15;;;;;;;17.98;11.23;;;4.90;51.40;;;;;;5014110;28;20381;-75
2021/11/25 04:29:44;;;;;;;20.50;12.20;;;4.90;52.10;;;;;;5014167;28;20399;-75
2021/11/25 04:37:42;;;;;;;20.25;11.65;;;4.90;53.10;;;;;;5014408;28;20387;-75
2021/11/25 04:40:08;;;;;;;20.60;12.55;;;5.00;52.80;;;;;;5016156;28;20779;-77
2021/11/25 04:42:34;;;;;;;19.88;12.25;;;5.00;52.90;;;;;;5013900;28;20499;-75
2021/11/25 04:45:00;;;;;;;15.00;10.85;;;5.00;52.80;;;;;;5012818;28;20404;-75
2021/11/25 04:47:25;;;;;;;15.77;11.63;;;5.00;53.00;;;;;;5013305;28;20878;-76
2021/11/25 04:49:51;;;;;;;21.00;11.40;;;5.00;53.20;;;;;;5015918;28;20750;-76
2021/11/25 04:52:16;;;;;;;18.80;11.53;;;5.10;52.90;;;;;;5012922;28;20447;-76
2021/11/25 04:54:42;;;;;;;19.10;11.87;;;5.10;52.40;;;;;;5013716;28;20393;-75
2021/11/25 04:57:07;;;;;;;16.03;10.83;;;5.10;52.20;;;;;;5013531;28;20491;-75
2021/11/25 04:59:33;;;;;;;19.23;12.70;;;5.10;51.90;;;;;;5012879;28;20907;-76
2021/11/25 05:01:58;;;;;;;19.37;12.50;;;5.10;51.80;;;;;;5013589;28;20418;-76
2021/11/25 05:04:24;;;;;;;19.23;11.80;;;5.00;52.10;;;;;;5012703;28;20443;-76
2021/11/25 05:06:50;;;;;;;17.63;11.57;;;5.10;52.80;;;;;;5012010;28;20439;-76
2021/11/25 05:09:16;;;;;;;17.45;11.60;;;5.20;52.80;;;;;;5013779;28;20805;-77
2021/11/25 05:11:42;;;;;;;19.58;12.50;;;5.40;50.80;;;;;;5011546;28;20409;-76
2021/11/25 05:14:07;;;;;;;21.25;12.10;;;5.30;51.10;;;;;;5014014;28;20456;-76
2021/11/25 05:16:33;;;;;;;15.90;11.20;;;5.20;50.90;;;;;;5014027;28;20903;-76
2021/11/25 05:18:59;;;;;;;18.23;12.38;;;5.20;51.10;;;;;;5013935;28;20950;-76
2021/11/25 05:21:25;;;;;;;22.45;13.35;;;5.20;50.80;;;;;;5012415;28;20948;-76
2021/11/25 05:23:50;;;;;;;18.90;12.60;;;5.10;51.00;;;;;;5012352;28;20865;-76
2021/11/25 05:26:16;;;;;;;22.42;12.77;;;5.10;51.30;;;;;;5011892;28;20849;-75
2021/11/25 05:28:41;;;;;;;20.60;12.93;;;5.00;51.60;;;;;;5011770;28;20874;-75
2021/11/25 05:31:07;;;;;;;19.73;12.20;;;4.80;52.50;;;;;;5011910;28;20466;-75
2021/11/25 05:33:33;;;;;;;20.70;12.70;;;4.70;53.10;;;;;;5010985;28;20547;-77
2021/11/25 05:35:58;;;;;;;20.13;13.13;;;4.50;54.00;;;;;;5011419;28;20474;-76
2021/11/25 05:38:24;;;;;;;20.33;12.40;;;4.40;55.20;;;;;;5011335;28;20405;-75
2021/11/25 05:40:49;;;;;;;22.50;14.10;;;4.30;56.80;;;;;;5010720;28;20397;-77
2021/11/25 05:43:15;;;;;;;19.67;13.20;;;4.20;58.00;;;;;;5010533;28;20397;-76
2021/11/25 05:45:41;;;;;;;19.00;13.07;;;4.00;59.80;;;;;;5011588;28;20484;-75
2021/11/25 05:48:06;;;;;;;21.83;13.70;;;4.00;61.40;;;;;;5011263;28;20405;-75
2021/11/25 05:50:32;;;;;;;22.30;13.93;;;3.90;63.10;;;;;;5011185;28;20494;-76
2021/11/25 05:52:59;;;;;;;27.13;14.00;;;3.70;65.20;;;;;;5011261;28;20389;-75
2021/11/25 05:55:27;;;;;;;20.80;14.18;;;3.60;65.70;;;;;;5011859;28;20413;-74
2021/11/25 05:57:53;;;;;;;22.40;15.23;;;3.50;67.80;;;;;;5011304;28;20927;-76
2021/11/25 06:00:20;;;;;;;25.10;15.57;;;3.40;69.00;;;;;;5011381;28;20917;-74
2021/11/25 06:02:47;;;;;;;20.60;14.40;;;3.40;70.10;;;;;;5010601;28;20491;-75
2021/11/25 06:05:16;;;;;;;24.23;15.48;;;3.40;71.20;;;;;;5011065;28;20404;-75
2021/11/25 06:07:45;;;;;;;24.67;16.73;;;3.40;71.10;;;;;;5010574;28;20750;-76
2021/11/25 06:10:12;;;;;;;25.25;16.13;;;3.30;72.30;;;;;;4991514;28;20398;-75
2021/11/25 06:12:38;;;;;;;24.90;16.70;;;3.20;72.90;;;;;;5008488;28;21002;-74
2021/11/25 06:15:05;;;;;;;24.73;15.67;;;3.20;74.00;;;;;;5010957;28;20584;-75
2021/11/25 06:17:31;;;;;;;29.45;17.05;;;3.20;74.60;;;;;;5010103;28;20876;-76
2021/11/25 06:19:56;;;;;;;26.70;17.03;;;3.10;75.20;;;;;;5011481;28;20379;-77
2021/11/25 06:22:23;;;;;;;29.95;17.90;;;3.10;75.80;;;;;;5011651;28;20423;-76
2021/11/25 06:24:49;;;;;;;27.57;17.53;;;3.00;76.10;;;;;;5012673;28;20409;-74
2021/11/25 06:27:15;;;;;;;28.30;17.63;;;3.00;76.70;;;;;;5011627;28;20797;-75
2021/11/25 06:29:40;;;;;;;27.53;17.77;;;3.00;77.20;;;;;;5011167;28;20442;-76
2021/11/25 06:32:06;;;;;;;30.05;17.25;;;3.00;77.20;;;;;;5010072;28;20396;-74
2021/11/25 06:34:32;;;;;;;27.88;17.15;;;2.90;77.90;;;;;;5010438;28;20937;-76
2021/11/25 06:36:57;;;;;;;31.27;17.53;;;2.90;78.40;;;;;;5010422;28;20408;-75
2021/11/25 06:39:23;;;;;;;29.48;17.80;;;2.90;79.20;;;;;;5010937;28;20850;-75
2021/11/25 06:41:48;;;;;;;26.75;17.25;;;2.90;80.00;;;;;;5012709;28;20762;-77
2021/11/25 06:44:14;;;;;;;28.77;18.20;;;2.90;81.40;;;;;;5012756;28;20388;-76
2021/11/25 06:46:40;;;;;;;27.55;17.83;;;2.90;81.00;;;;;;5003419;28;20446;-75
2021/11/25 06:49:05;;;;;;;33.80;17.90;;;2.80;82.10;;;;;;4998097;28;20424;-76
2021/11/25 06:51:32;;;;;;;28.00;17.80;;;2.80;82.10;;;;;;5011527;28;20411;-76
2021/11/25 06:53:57;;;;;;;30.77;16.58;;;2.80;83.00;;;;;;5010862;28;20408;-75
2021/11/25 06:56:23;;;;;;;28.42;17.67;;;2.80;82.80;;;;;;5012178;28;20470;-75
2021/11/25 06:58:51;;;;;;;36.42;18.70;;;2.80;83.50;;;;;;5023438;28;20388;-73
2021/11/25 07:01:17;;;;;;;30.40;19.25;;;2.90;83.50;;;;;;5035002;28;20476;-75
2021/11/25 07:03:42;;;;;;;32.03;18.67;;;2.90;84.50;;;;;;5021794;28;20416;-76
2021/11/25 07:06:08;;;;;;;28.63;18.13;;;3.00;85.50;;;;;;5014403;28;20388;-74
2021/11/25 07:08:34;;;;;;;31.37;18.67;;;3.40;77.70;;;;;;5015023;28;20429;-75
2021/11/25 07:10:59;;;;;;;31.13;18.50;;;3.30;77.50;;;;;;5014236;28;20403;-74
2021/11/25 07:13:26;;;;;;;32.10;19.70;;;3.20;76.00;;;;;;5013406;28;20450;-74
2021/11/25 07:15:52;;;;;;;34.35;19.35;;;3.20;79.60;;;;;;5013795;28;20932;-74
2021/11/25 07:18:18;;;;;;;32.15;18.17;;;3.30;78.40;;;;;;5023925;28;20410;-74
2021/11/25 07:20:43;;;;;;;34.45;18.25;;;3.50;72.80;;;;;;5015305;28;20389;-74
2021/11/25 07:23:09;;;;;;;27.35;17.92;;;3.50;73.00;;;;;;5019453;28;20402;-75
2021/11/25 07:25:35;;;;;;;34.70;19.90;;;3.60;71.30;;;;;;5035014;28;20434;-75
2021/11/25 07:28:00;;;;;;;41.90;21.83;;;3.80;65.70;;;;;;5018864;28;20399;-75
2021/11/25 07:30:26;;;;;;;39.85;22.23;;;3.80;61.80;;;;;;5014361;28;20419;-75
2021/11/25 07:32:52;;;;;;;43.42;21.58;;;3.80;59.30;;;;;;5024400;28;20856;-73
2021/11/25 07:35:20;;;;;;;41.85;22.02;;;3.80;59.80;;;;;;5030476;28;20416;-74
2021/11/25 07:37:52;;;;;;;39.40;23.02;;;3.70;60.00;;;;;;5017135;28;20406;-74
2021/11/25 07:40:18;;;;;;;36.43;21.30;;;3.50;60.90;;;;;;5014427;28;20401;-74
2021/11/25 07:42:44;;;;;;;45.08;22.02;;;3.50;61.50;;;;;;5014693;28;20405;-74
2021/11/25 07:45:11;;;;;;;41.23;21.07;;;3.40;62.00;;;;;;5014332;28;20423;-74
2021/11/25 07:47:37;;;;;;;48.92;25.25;;;3.30;63.70;;;;;;5006445;28;20402;-74
2021/11/25 07:50:09;;;;;;;41.83;23.97;;;3.20;65.70;;;;;;4997391;28;20386;-73
2021/11/25 07:52:36;;;;;;;40.65;23.77;;;3.20;66.50;;;;;;5006297;28;20397;-75
2021/11/25 07:55:02;;;;;;;47.50;23.83;;;3.20;65.70;;;;;;5007125;28;20426;-75
2021/11/25 07:57:28;;;;;;;45.28;24.25;;;3.10;66.00;;;;;;5012377;28;20405;-77
2021/11/25 07:59:53;;;;;;;43.40;23.27;;;3.10;64.80;;;;;;5012672;28;20400;-75
2021/11/25 08:02:20;;;;;;;43.28;24.05;;;3.10;63.80;;;;;;5003314;28;20759;-75
2021/11/25 08:04:47;;;;;;;42.67;25.05;;;3.00;64.60;;;;;;5009285;28;20866;-75
2021/11/25 08:07:12;;;;;;;46.77;24.90;;;3.00;65.50;;;;;;5011965;28;20544;-75
2021/11/25 08:09:38;;;;;;;47.83;26.27;;;3.10;67.40;;;;;;5011417;28;20468;-77
2021/11/25 08:12:05;;;;;;;46.22;26.48;;;3.20;67.10;;;;;;5005325;28;20414;-75
2021/11/25 08:14:30;;;;;;;46.27;26.97;;;3.20;67.30;;;;;;5007618;28;20512;-77
2021/11/25 08:16:58;;;;;;;44.08;25.42;;;3.20;69.40;;;;;;5005593;28;20416;-74
2021/11/25 08:19:27;;;;;;;46.42;26.85;;;3.30;66.90;;;;;;5012874;28;20407;-76
2021/11/25 08:21:54;;;;;;;46.08;26.30;;;3.30;63.50;;;;;;5010022;28;20439;-75
2021/11/25 08:24:20;;;;;;;46.72;26.77;;;3.20;66.30;;;;;;5010030;28;20389;-76
2021/11/25 08:26:45;;;;;;;46.87;27.53;;;3.10;69.00;;;;;;5011335;28;20408;-75
2021/11/25 08:29:11;;;;;;;44.00;25.90;;;3.30;67.40;;;;;;5013284;28;20874;-73
2021/11/25 08:31:37;;;;;;;46.13;25.77;;;3.40;64.50;;;;;;5012704;28;20524;-76
2021/11/25 08:34:02;;;;;;;46.55;26.95;;;3.50;64.30;;;;;;5013549;28;20822;-75
2021/11/25 08:36:28;;;;;;;46.63;26.07;;;3.50;63.60;;;;;;5010459;28;20778;-74
2021/11/25 08:38:53;;;;;;;42.27;24.80;;;3.80;61.60;;;;;;5015027;28;20472;-73
2021/11/25 08:41:19;;;;;;;41.50;25.30;;;4.00;57.10;;;;;;5015399;28;20443;-76
2021/11/25 08:43:45;;;;;;;40.70;25.10;;;4.10;56.80;;;;;;5013717;28;20455;-75
2021/11/25 08:46:10;;;;;;;43.35;25.90;;;4.30;55.60;;;;;;5010536;28;20415;-74
2021/11/25 08:48:36;;;;;;;42.90;25.63;;;4.40;55.90;;;;;;5012080;28;20552;-73
2021/11/25 08:51:03;;;;;;;47.00;26.13;;;4.50;56.50;;;;;;5012062;28;20743;-74
2021/11/25 08:53:30;;;;;;;43.30;26.08;;;4.70;56.10;;;;;;5011322;28;20440;-76
2021/11/25 08:55:56;;;;;;;50.13;26.83;;;4.90;54.00;;;;;;5011732;28;20886;-75
2021/11/25 08:58:21;;;;;;;43.87;27.20;;;5.20;52.50;;;;;;5012068;28;20447;-76
2021/11/25 09:00:47;;;;;;;48.75;28.10;;;5.40;49.10;;;;;;5012856;28;20381;-75
2021/11/25 09:03:12;;;;;;;47.30;27.50;;;5.40;47.70;;;;;;5012330;28;20428;-74
2021/11/25 09:05:38;;;;;;;45.08;26.98;;;5.40;46.10;;;;;;5010699;28;20825;-75
2021/11/25 09:08:04;;;;;;;44.08;27.15;;;5.50;46.50;;;;;;5013302;28;20909;-75
2021/11/25 09:10:30;;;;;;;46.80;27.43;;;5.50;45.80;;;;;;5009606;28;20735;-76
2021/11/25 09:12:56;;;;;;;48.85;28.02;;;5.60;46.30;;;;;;5012354;28;20503;-77
2021/11/25 09:15:22;;;;;;;45.13;26.58;;;5.70;46.20;;;;;;5004823;28;20439;-74
2021/11/25 09:17:48;;;;;;;45.90;25.95;;;5.80;45.00;;;;;;5016086;28;20408;-75
2021/11/25 09:20:14;;;;;;;47.47;27.47;;;5.80;43.80;;;;;;5020828;28;20397;-75
2021/11/25 09:22:39;;;;;;;47.35;27.33;;;5.80;44.20;;;;;;5012565;28;20404;-75
2021/11/25 09:25:06;;;;;;;51.63;29.00;;;5.90;43.10;;;;;;5009447;28;20416;-75
2021/11/25 09:27:32;;;;;;;49.20;27.70;;;6.00;43.30;;;;;;5006101;28;20413;-75
2021/11/25 09:29:59;;;;;;;51.75;28.30;;;6.00;43.60;;;;;;5009956;28;20394;-76
2021/11/25 09:32:24;;;;;;;49.50;28.20;;;6.00;43.30;;;;;;5010820;28;20770;-73
2021/11/25 09:34:51;;;;;;;46.10;27.35;;;6.10;43.40;;;;;;5009834;28;20404;-73
2021/11/25 09:37:17;;;;;;;46.50;26.90;;;6.40;42.50;;;;;;5004238;28;20591;-75
2021/11/25 09:39:43;;;;;;;44.83;28.27;;;6.60;41.20;;;;;;5010115;28;20406;-74
2021/11/25 09:42:08;;;;;;;51.15;28.25;;;6.50;41.80;;;;;;5011786;28;20415;-76
2021/11/25 09:44:34;;;;;;;51.15;29.60;;;6.60;42.20;;;;;;5011433;28;20404;-74
2021/11/25 09:47:00;;;;;;;53.80;29.77;;;6.60;41.60;;;;;;5010126;28;20401;-75
2021/11/25 09:49:27;;;;;;;47.88;29.25;;;6.60;40.80;;;;;;5011369;28;20403;-74
2021/11/25 09:51:54;;;;;;;50.40;29.00;;;6.60;40.50;;;;;;5008394;28;20442;-74
2021/11/25 09:54:20;;;;;;;51.08;30.00;;;6.60;40.90;;;;;;5008272;28;20410;-74
2021/11/25 09:56:47;;;;;;;48.13;30.00;;;6.60;40.10;;;;;;5019140;28;20438;-74
2021/11/25 09:59:13;;;;;;;45.95;28.50;;;6.50;40.30;;;;;;5020462;28;20407;-76
2021/11/25 10:01:39;;;;;;;47.50;29.20;;;6.50;40.00;;;;;;5023901;28;20401;-74
2021/11/25 10:04:05;;;;;;;48.07;28.70;;;6.50;40.00;;;;;;5033352;28;20420;-74
2021/11/25 10:06:36;;;;;;;43.30;28.35;;;6.50;40.20;;;;;;5014131;28;20440;-77
2021/11/25 10:09:03;;;;;;;50.75;28.77;;;6.50;40.10;;;;;;5013945;28;20446;-74
2021/11/25 10:11:34;;;;;;;44.55;27.33;;;6.40;40.20;;;;;;5011782;28;20494;-75
2021/11/25 10:14:07;;;;;;;43.22;27.58;;;6.40;40.50;;;;;;5005207;28;20402;-78
2021/11/25 10:16:39;;;;;;;50.23;28.87;;;6.30;40.60;;;;;;5006473;28;20436;-75
2021/11/25 10:19:17;;;;;;;49.20;30.00;;;6.30;41.00;;;;;;5011795;28;20392;-77
2021/11/25 10:21:51;;;;;;;46.53;27.75;;;6.30;41.20;;;;;;5011738;28;20399;-76
2021/11/25 10:24:33;;;;;;;44.28;27.23;;;6.40;40.60;;;;;;5005385;28;20394;-76
2021/11/25 10:27:19;;;;;;;44.38;28.58;;;6.50;40.10;;;;;;5010016;28;20901;-75
2021/11/25 10:30:07;;;;;;;49.80;27.80;;;6.40;39.80;;;;;;5006326;28;20381;-75
2021/11/25 10:32:33;;;;;;;48.73;28.93;;;6.50;40.00;;;;;;5011912;28;20439;-75
2021/11/25 10:35:29;;;;;;;47.53;28.17;;;6.50;40.50;;;;;;5013248;28;20389;-72
2021/11/25 10:38:36;;;;;;;43.20;27.05;;;6.60;40.20;;;;;;5006542;28;20434;-73
2021/11/25 10:40:48;;;;;;;45.10;27.83;;;6.70;39.40;;;;;;5007895;28;20393;-75
2021/11/25 10:43:19;;;;;;;45.33;26.90;;;6.70;39.00;;;;;;5015855;28;20404;-75
2021/11/25 10:45:48;;;;;;;49.33;28.38;;;6.80;39.00;;;;;;5015451;28;20414;-74
2021/11/25 10:48:35;;;;;;;46.60;27.40;;;6.90;38.90;;;;;;5015465;28;20405;-75
2021/11/25 10:51:20;;;;;;;47.10;27.98;;;7.00;38.40;;;;;;5010055;28;20389;-77
2021/11/25 10:54:07;;;;;;;46.47;28.27;;;7.00;38.40;;;;;;5001836;28;20405;-74
2021/11/25 10:56:41;;;;;;;52.60;27.88;;;7.00;38.20;;;;;;5008305;28;20948;-76
2021/11/25 10:59:09;;;;;;;47.33;28.13;;;7.10;37.50;;;;;;5017128;28;20397;-76
2021/11/25 11:01:40;;;;;;;44.55;26.63;;;7.10;37.90;;;;;;5013223;28;20420;-76
2021/11/25 11:04:06;;;;;;;41.53;26.65;;;7.20;37.40;;;;;;5014776;28;20413;-75
2021/11/25 11:06:34;;;;;;;47.75;27.02;;;7.20;36.80;;;;;;5018416;28;20401;-76
2021/11/25 11:09:00;;;;;;;44.65;28.08;;;7.30;36.20;;;;;;5019450;28;20474;-75
2021/11/25 11:11:27;;;;;;;46.33;27.23;;;7.40;36.00;;;;;;5019142;28;20385;-74
2021/11/25 11:14:39;;;;;;;45.92;27.80;;;7.40;35.60;;;;;;5014675;28;20502;-76
2021/11/25 11:17:22;;;;;;;46.17;27.38;;;7.50;35.90;;;;;;5016616;28;20495;-77
2021/11/25 11:20:05;;;;;;;47.45;28.50;;;7.50;35.70;;;;;;5016674;28;20392;-79
2021/11/25 11:22:33;;;;;;;48.60;29.02;;;7.50;35.50;;;;;;4996131;28;20402;-77
2021/11/25 11:24:58;;;;;;;45.10;27.77;;;7.60;35.70;;;;;;5003285;28;20382;-76
2021/11/25 11:27:24;;;;;;;45.65;28.98;;;7.60;35.20;;;;;;5020258;28;20397;-77
2021/11/25 11:29:50;;;;;;;49.55;28.25;;;7.50;35.60;;;;;;5021814;28;20886;-78
2021/11/25 11:32:16;;;;;;;50.67;29.20;;;7.60;35.70;;;;;;5020005;28;20761;-77
2021/11/25 11:34:43;;;;;;;52.95;30.50;;;7.50;35.90;;;;;;5012901;28;20418;-77
2021/11/25 11:37:12;;;;;;;45.97;29.27;;;7.50;35.80;;;;;;5020367;28;20496;-78
2021/11/25 11:39:38;;;;;;;43.92;28.10;;;7.50;35.70;;;;;;5016808;28;20432;-76
2021/11/25 11:42:07;;;;;;;56.63;30.20;;;7.50;36.00;;;;;;5013583;28;20483;-75
2021/11/25 11:44:33;;;;;;;48.70;28.88;;;7.40;36.50;;;;;;5002298;28;20428;-77
2021/11/25 11:47:08;;;;;;;53.03;29.83;;;7.40;36.50;;;;;;5010679;28;20762;-76
2021/11/25 11:49:35;;;;;;;49.72;28.88;;;7.50;36.40;;;;;;5001915;28;20387;-73
2021/11/25 11:52:10;;;;;;;51.45;29.83;;;7.50;36.40;;;;;;5013917;28;20404;-75
2021/11/25 11:54:57;;;;;;;52.40;30.38;;;7.50;36.80;;;;;;5013247;28;20424;-76
2021/11/25 11:57:33;;;;;;;51.25;30.17;;;7.60;36.50;;;;;;5014284;28;20867;-75
2021/11/25 12:00:24;;;;;;;53.30;30.20;;;7.90;36.20;;;;;;5014872;28;20398;-75
2021/11/25 12:02:55;;;;;;;48.72;28.50;;;7.90;35.40;;;;;;5001334;28;20401;-74
2021/11/25 12:05:38;;;;;;;49.58;30.75;;;7.90;35.70;;;;;;5027799;28;20926;-73
2021/11/25 12:08:19;;;;;;;47.40;28.13;;;7.90;35.70;;;;;;5006359;28;20584;-74
2021/11/25 12:11:00;;;;;;;45.40;27.83;;;7.80;35.40;;;;;;5013785;28;20387;-76
2021/11/25 12:13:26;;;;;;;45.33;27.60;;;7.80;35.30;;;;;;5013176;28;20410;-74
2021/11/25 12:16:18;;;;;;;46.50;29.00;;;7.90;35.00;;;;;;5012908;28;20408;-76
2021/11/25 12:18:54;;;;;;;48.22;27.85;;;7.90;35.50;;;;;;5001221;28;20437;-75
2021/11/25 12:21:49;;;;;;;44.47;28.42;;;7.90;35.50;;;;;;5014364;28;20393;-76
2021/11/25 12:24:26;;;;;;;41.60;27.83;;;7.70;35.30;;;;;;5016633;28;20386;-75
2021/11/25 12:27:07;;;;;;;51.35;29.50;;;7.70;36.00;;;;;;5015684;28;20389;-77
2021/11/25 12:29:56;;;;;;;45.88;28.48;;;7.70;36.00;;;;;;5014711;28;20398;-78
2021/11/25 12:32:45;;;;;;;45.00;29.48;;;7.80;35.90;;;;;;5014504;28;20549;-76
2021/11/25 12:35:14;;;;;;;46.97;29.95;;;7.70;36.10;;;;;;5014235;28;20928;-74
2021/11/25 12:37:46;;;;;;;47.50;28.95;;;7.60;37.10;;;;;;5015318;28;20401;-75
2021/11/25 12:40:14;;;;;;;49.10;30.20;;;7.50;37.10;;;;;;5015355;28;20456;-77
2021/11/25 12:42:41;;;;;;;51.92;31.10;;;7.30;38.90;;;;;;5014179;28;20467;-76
2021/11/25 12:45:20;;;;;;;50.17;31.63;;;7.30;40.30;;;;;;5014810;28;20405;-74
2021/11/25 12:47:46;;;;;;;45.17;29.30;;;7.20;40.70;;;;;;5017375;28;20505;-76